sensor_id;sensor_type;location;lat;lon;timestamp;P1;durP1;ratioP1;P2;durP2;ratioP2
19519;SDS011;9904;52.246;20.898;2023-04-01T00:00:58;33.10;;;17.13;;
19519;SDS011;9904;52.246;20.898;2023-04-01T00:03:25;32.53;;;17.20;;
19519;SDS011;9904;52.246;20.898;2023-04-01T00:05:54;34.97;;;18.20;;
19519;SDS011;9904;52.246;20.898;2023-04-01T00:08:21;34.23;;;18.13;;
19519;SDS011;9904;52.246;20.898;2023-04-01T00:10:48;37.63;;;18.57;;
19519;SDS011;9904;52.246;20.898;2023-04-01T00:13:14;38.87;;;18.30;;
19519;SDS011;9904;52.246;20.898;2023-04-01T00:15:41;34.07;;;18.47;;
19519;SDS011;9904;52.246;20.898;2023-04-01T00:18:08;36.67;;;18.97;;
19519;SDS011;9904;52.246;20.898;2023-04-01T00:20:35;43.27;;;19.77;;
19519;SDS011;9904;52.246;20.898;2023-04-01T00:23:03;40.97;;;20.23;;
19519;SDS011;9904;52.246;20.898;2023-04-01T00:25:30;44.23;;;21.17;;
19519;SDS011;9904;52.246;20.898;2023-04-01T00:27:57;43.23;;;20.87;;
19519;SDS011;9904;52.246;20.898;2023-04-01T00:30:24;37.50;;;20.50;;
19519;SDS011;9904;52.246;20.898;2023-04-01T00:32:51;53.50;;;22.10;;
19519;SDS011;9904;52.246;20.898;2023-04-01T00:35:18;41.37;;;21.60;;
19519;SDS011;9904;52.246;20.898;2023-04-01T00:37:45;44.43;;;22.30;;
19519;SDS011;9904;52.246;20.898;2023-04-01T00:40:27;44.93;;;22.00;;
19519;SDS011;9904;52.246;20.898;2023-04-01T00:42:55;43.27;;;21.70;;
19519;SDS011;9904;52.246;20.898;2023-04-01T00:47:52;40.07;;;22.50;;
19519;SDS011;9904;52.246;20.898;2023-04-01T00:50:19;44.80;;;22.50;;
19519;SDS011;9904;52.246;20.898;2023-04-01T00:52:47;39.63;;;22.33;;
19519;SDS011;9904;52.246;20.898;2023-04-01T00:55:14;45.37;;;22.43;;
19519;SDS011;9904;52.246;20.898;2023-04-01T00:57:41;49.73;;;24.60;;
19519;SDS011;9904;52.246;20.898;2023-04-01T01:00:09;44.23;;;23.07;;
19519;SDS011;9904;52.246;20.898;2023-04-01T01:02:37;49.13;;;24.83;;
19519;SDS011;9904;52.246;20.898;2023-04-01T01:05:04;56.00;;;25.40;;
19519;SDS011;9904;52.246;20.898;2023-04-01T01:07:48;46.47;;;23.77;;
19519;SDS011;9904;52.246;20.898;2023-04-01T01:10:24;49.47;;;23.63;;
19519;SDS011;9904;52.246;20.898;2023-04-01T01:12:56;48.63;;;23.43;;
19519;SDS011;9904;52.246;20.898;2023-04-01T01:15:25;44.13;;;22.83;;
19519;SDS011;9904;52.246;20.898;2023-04-01T01:29:01;45.90;;;22.23;;
19519;SDS011;9904;52.246;20.898;2023-04-01T01:31:44;41.93;;;22.53;;
19519;SDS011;9904;52.246;20.898;2023-04-01T01:34:22;44.57;;;22.17;;
19519;SDS011;9904;52.246;20.898;2023-04-01T01:36:55;46.87;;;22.87;;
19519;SDS011;9904;52.246;20.898;2023-04-01T01:39:25;38.13;;;21.23;;
19519;SDS011;9904;52.246;20.898;2023-04-01T01:41:54;49.27;;;24.37;;
19519;SDS011;9904;52.246;20.898;2023-04-01T01:44:22;47.17;;;22.50;;
19519;SDS011;9904;52.246;20.898;2023-04-01T01:46:49;49.83;;;23.30;;
19519;SDS011;9904;52.246;20.898;2023-04-01T01:49:16;49.00;;;23.47;;
19519;SDS011;9904;52.246;20.898;2023-04-01T01:51:44;49.13;;;23.97;;
19519;SDS011;9904;52.246;20.898;2023-04-01T01:54:14;47.37;;;24.30;;
19519;SDS011;9904;52.246;20.898;2023-04-01T01:56:42;56.80;;;24.37;;
19519;SDS011;9904;52.246;20.898;2023-04-01T01:59:11;49.43;;;24.73;;
19519;SDS011;9904;52.246;20.898;2023-04-01T02:01:40;44.27;;;24.47;;
19519;SDS011;9904;52.246;20.898;2023-04-01T02:04:09;44.00;;;23.17;;
19519;SDS011;9904;52.246;20.898;2023-04-01T02:06:37;50.07;;;24.10;;
19519;SDS011;9904;52.246;20.898;2023-04-01T02:09:07;55.47;;;24.47;;
19519;SDS011;9904;52.246;20.898;2023-04-01T02:11:44;53.23;;;25.03;;
19519;SDS011;9904;52.246;20.898;2023-04-01T02:14:26;54.43;;;25.07;;
19519;SDS011;9904;52.246;20.898;2023-04-01T02:16:57;50.73;;;24.90;;
19519;SDS011;9904;52.246;20.898;2023-04-01T02:19:32;45.57;;;24.37;;
19519;SDS011;9904;52.246;20.898;2023-04-01T02:22:02;44.73;;;24.50;;
19519;SDS011;9904;52.246;20.898;2023-04-01T02:24:30;49.13;;;25.80;;
19519;SDS011;9904;52.246;20.898;2023-04-01T02:26:57;44.67;;;24.90;;
19519;SDS011;9904;52.246;20.898;2023-04-01T02:29:24;46.50;;;24.63;;
19519;SDS011;9904;52.246;20.898;2023-04-01T02:31:52;48.57;;;23.07;;
19519;SDS011;9904;52.246;20.898;2023-04-01T02:34:19;50.73;;;25.23;;
19519;SDS011;9904;52.246;20.898;2023-04-01T02:36:47;45.10;;;22.97;;
19519;SDS011;9904;52.246;20.898;2023-04-01T02:39:15;45.83;;;23.83;;
19519;SDS011;9904;52.246;20.898;2023-04-01T02:41:42;45.30;;;23.97;;
19519;SDS011;9904;52.246;20.898;2023-04-01T02:44:10;49.40;;;24.80;;
19519;SDS011;9904;52.246;20.898;2023-04-01T02:46:38;48.27;;;24.43;;
19519;SDS011;9904;52.246;20.898;2023-04-01T02:49:05;55.83;;;26.07;;
19519;SDS011;9904;52.246;20.898;2023-04-01T02:51:32;50.20;;;25.40;;
19519;SDS011;9904;52.246;20.898;2023-04-01T02:53:59;46.27;;;24.67;;
19519;SDS011;9904;52.246;20.898;2023-04-01T02:56:26;50.60;;;24.77;;
19519;SDS011;9904;52.246;20.898;2023-04-01T02:58:53;48.60;;;26.17;;
19519;SDS011;9904;52.246;20.898;2023-04-01T03:01:20;53.17;;;26.63;;
19519;SDS011;9904;52.246;20.898;2023-04-01T03:03:47;52.80;;;26.77;;
19519;SDS011;9904;52.246;20.898;2023-04-01T03:06:14;59.03;;;27.87;;
19519;SDS011;9904;52.246;20.898;2023-04-01T03:08:42;59.23;;;28.90;;
19519;SDS011;9904;52.246;20.898;2023-04-01T03:11:09;57.97;;;29.37;;
19519;SDS011;9904;52.246;20.898;2023-04-01T03:13:36;56.87;;;30.37;;
19519;SDS011;9904;52.246;20.898;2023-04-01T03:16:03;53.20;;;29.07;;
19519;SDS011;9904;52.246;20.898;2023-04-01T03:18:29;56.67;;;29.67;;
19519;SDS011;9904;52.246;20.898;2023-04-01T03:20:56;55.03;;;29.33;;
19519;SDS011;9904;52.246;20.898;2023-04-01T03:23:23;64.17;;;30.27;;
19519;SDS011;9904;52.246;20.898;2023-04-01T03:25:50;54.60;;;28.13;;
19519;SDS011;9904;52.246;20.898;2023-04-01T03:28:17;59.47;;;28.67;;
19519;SDS011;9904;52.246;20.898;2023-04-01T03:30:43;57.17;;;29.27;;
19519;SDS011;9904;52.246;20.898;2023-04-01T03:33:10;54.70;;;27.63;;
19519;SDS011;9904;52.246;20.898;2023-04-01T03:35:37;58.83;;;28.43;;
19519;SDS011;9904;52.246;20.898;2023-04-01T03:38:03;52.93;;;27.87;;
19519;SDS011;9904;52.246;20.898;2023-04-01T03:40:30;66.33;;;29.27;;
19519;SDS011;9904;52.246;20.898;2023-04-01T03:42:56;52.53;;;27.37;;
19519;SDS011;9904;52.246;20.898;2023-04-01T03:45:23;52.87;;;27.37;;
19519;SDS011;9904;52.246;20.898;2023-04-01T03:47:49;60.37;;;28.33;;
19519;SDS011;9904;52.246;20.898;2023-04-01T03:50:16;49.70;;;27.03;;
19519;SDS011;9904;52.246;20.898;2023-04-01T03:52:43;54.87;;;26.33;;
19519;SDS011;9904;52.246;20.898;2023-04-01T03:55:09;52.83;;;27.13;;
19519;SDS011;9904;52.246;20.898;2023-04-01T03:57:36;53.20;;;26.53;;
19519;SDS011;9904;52.246;20.898;2023-04-01T04:00:03;54.77;;;26.73;;
19519;SDS011;9904;52.246;20.898;2023-04-01T04:02:29;50.47;;;26.63;;
19519;SDS011;9904;52.246;20.898;2023-04-01T04:04:56;51.73;;;26.93;;
19519;SDS011;9904;52.246;20.898;2023-04-01T04:07:23;50.83;;;26.13;;
19519;SDS011;9904;52.246;20.898;2023-04-01T04:09:49;49.03;;;26.20;;
19519;SDS011;9904;52.246;20.898;2023-04-01T04:12:16;63.70;;;27.60;;
19519;SDS011;9904;52.246;20.898;2023-04-01T04:14:42;52.27;;;26.87;;
19519;SDS011;9904;52.246;20.898;2023-04-01T04:17:11;52.10;;;25.87;;
19519;SDS011;9904;52.246;20.898;2023-04-01T04:19:42;50.23;;;25.37;;
19519;SDS011;9904;52.246;20.898;2023-04-01T04:22:09;49.43;;;24.47;;
19519;SDS011;9904;52.246;20.898;2023-04-01T04:24:35;49.07;;;24.57;;
19519;SDS011;9904;52.246;20.898;2023-04-01T04:27:03;52.20;;;24.70;;
19519;SDS011;9904;52.246;20.898;2023-04-01T04:29:29;46.70;;;23.73;;
19519;SDS011;9904;52.246;20.898;2023-04-01T04:31:56;40.83;;;21.83;;
19519;SDS011;9904;52.246;20.898;2023-04-01T04:34:22;42.53;;;22.53;;
19519;SDS011;9904;52.246;20.898;2023-04-01T04:36:49;40.20;;;21.80;;
19519;SDS011;9904;52.246;20.898;2023-04-01T04:39:16;38.67;;;19.33;;
19519;SDS011;9904;52.246;20.898;2023-04-01T04:41:42;39.43;;;21.03;;
19519;SDS011;9904;52.246;20.898;2023-04-01T04:44:09;41.50;;;20.87;;
19519;SDS011;9904;52.246;20.898;2023-04-01T04:46:36;37.60;;;19.47;;
19519;SDS011;9904;52.246;20.898;2023-04-01T04:49:04;36.67;;;19.13;;
19519;SDS011;9904;52.246;20.898;2023-04-01T04:51:31;35.20;;;18.70;;
19519;SDS011;9904;52.246;20.898;2023-04-01T04:54:00;35.37;;;19.23;;
19519;SDS011;9904;52.246;20.898;2023-04-01T04:56:26;33.63;;;18.43;;
19519;SDS011;9904;52.246;20.898;2023-04-01T04:58:53;33.77;;;18.00;;
19519;SDS011;9904;52.246;20.898;2023-04-01T05:01:20;30.40;;;17.37;;
19519;SDS011;9904;52.246;20.898;2023-04-01T05:03:46;32.00;;;17.47;;
19519;SDS011;9904;52.246;20.898;2023-04-01T05:06:14;32.83;;;16.53;;
19519;SDS011;9904;52.246;20.898;2023-04-01T05:08:42;31.23;;;15.77;;
19519;SDS011;9904;52.246;20.898;2023-04-01T05:11:10;27.90;;;15.03;;
19519;SDS011;9904;52.246;20.898;2023-04-01T05:13:39;30.23;;;15.63;;
19519;SDS011;9904;52.246;20.898;2023-04-01T05:16:13;29.23;;;14.93;;
19519;SDS011;9904;52.246;20.898;2023-04-01T05:18:41;28.13;;;15.00;;
19519;SDS011;9904;52.246;20.898;2023-04-01T05:21:09;27.37;;;14.77;;
19519;SDS011;9904;52.246;20.898;2023-04-01T05:23:37;27.03;;;14.80;;
19519;SDS011;9904;52.246;20.898;2023-04-01T05:26:07;24.20;;;13.50;;
19519;SDS011;9904;52.246;20.898;2023-04-01T05:28:36;24.40;;;13.47;;
19519;SDS011;9904;52.246;20.898;2023-04-01T05:31:03;23.90;;;13.77;;
19519;SDS011;9904;52.246;20.898;2023-04-01T05:33:31;24.20;;;14.60;;
19519;SDS011;9904;52.246;20.898;2023-04-01T05:38:33;22.33;;;12.53;;
19519;SDS011;9904;52.246;20.898;2023-04-01T05:41:01;22.37;;;12.83;;
19519;SDS011;9904;52.246;20.898;2023-04-01T05:43:32;20.70;;;12.87;;
19519;SDS011;9904;52.246;20.898;2023-04-01T05:46:03;25.33;;;12.83;;
19519;SDS011;9904;52.246;20.898;2023-04-01T05:48:29;19.33;;;12.40;;
19519;SDS011;9904;52.246;20.898;2023-04-01T05:50:56;22.20;;;11.90;;
19519;SDS011;9904;52.246;20.898;2023-04-01T05:53:22;22.30;;;11.83;;
19519;SDS011;9904;52.246;20.898;2023-04-01T05:55:49;21.67;;;11.33;;
19519;SDS011;9904;52.246;20.898;2023-04-01T05:58:16;20.33;;;11.87;;
19519;SDS011;9904;52.246;20.898;2023-04-01T06:00:42;21.13;;;12.47;;
19519;SDS011;9904;52.246;20.898;2023-04-01T06:03:09;19.17;;;11.57;;
19519;SDS011;9904;52.246;20.898;2023-04-01T06:05:42;18.43;;;10.57;;
19519;SDS011;9904;52.246;20.898;2023-04-01T06:08:11;19.70;;;11.13;;
19519;SDS011;9904;52.246;20.898;2023-04-01T06:10:45;18.90;;;10.80;;
19519;SDS011;9904;52.246;20.898;2023-04-01T06:13:23;18.50;;;11.13;;
19519;SDS011;9904;52.246;20.898;2023-04-01T06:18:43;15.40;;;8.57;;
19519;SDS011;9904;52.246;20.898;2023-04-01T06:27:36;11.70;;;7.60;;
19519;SDS011;9904;52.246;20.898;2023-04-01T06:33:24;15.63;;;7.40;;
19519;SDS011;9904;52.246;20.898;2023-04-01T06:39:04;12.33;;;7.40;;
19519;SDS011;9904;52.246;20.898;2023-04-01T06:42:03;17.90;;;8.20;;
19519;SDS011;9904;52.246;20.898;2023-04-01T06:50:28;15.30;;;8.57;;
19519;SDS011;9904;52.246;20.898;2023-04-01T06:53:10;15.07;;;8.10;;
19519;SDS011;9904;52.246;20.898;2023-04-01T06:55:51;9.13;;;5.00;;
19519;SDS011;9904;52.246;20.898;2023-04-01T06:59:05;6.37;;;4.20;;
19519;SDS011;9904;52.246;20.898;2023-04-01T07:02:13;9.70;;;4.00;;
19519;SDS011;9904;52.246;20.898;2023-04-01T07:04:20;10.20;;;4.20;;
19519;SDS011;9904;52.246;20.898;2023-04-01T07:09:26;8.57;;;5.10;;
19519;SDS011;9904;52.246;20.898;2023-04-01T07:11:59;8.03;;;5.23;;
19519;SDS011;9904;52.246;20.898;2023-04-01T07:14:32;18.23;;;9.20;;
19519;SDS011;9904;52.246;20.898;2023-04-01T07:25:14;29.90;;;17.97;;
19519;SDS011;9904;52.246;20.898;2023-04-01T07:27:42;32.10;;;19.87;;
19519;SDS011;9904;52.246;20.898;2023-04-01T07:30:13;27.63;;;18.27;;
19519;SDS011;9904;52.246;20.898;2023-04-01T07:32:44;33.33;;;18.80;;
19519;SDS011;9904;52.246;20.898;2023-04-01T07:40:26;36.47;;;21.90;;
19519;SDS011;9904;52.246;20.898;2023-04-01T07:43:17;37.47;;;22.00;;
19519;SDS011;9904;52.246;20.898;2023-04-01T07:45:57;36.07;;;21.70;;
19519;SDS011;9904;52.246;20.898;2023-04-01T07:51:17;36.53;;;21.87;;
19519;SDS011;9904;52.246;20.898;2023-04-01T07:59:29;29.93;;;19.10;;
19519;SDS011;9904;52.246;20.898;2023-04-01T16:08:19;3.77;;;2.40;;
19519;SDS011;9904;52.246;20.898;2023-04-01T16:10:52;4.53;;;2.30;;
19519;SDS011;9904;52.246;20.898;2023-04-01T16:21:37;3.23;;;2.03;;
19519;SDS011;9904;52.246;20.898;2023-04-01T16:29:41;4.73;;;2.50;;
19519;SDS011;9904;52.246;20.898;2023-04-01T16:34:55;5.27;;;2.73;;
19519;SDS011;9904;52.246;20.898;2023-04-01T16:37:33;5.13;;;2.40;;
19519;SDS011;9904;52.246;20.898;2023-04-01T16:40:52;4.10;;;2.07;;
19519;SDS011;9904;52.246;20.898;2023-04-01T16:45:37;6.63;;;3.13;;
19519;SDS011;9904;52.246;20.898;2023-04-01T16:48:14;4.93;;;2.47;;
19519;SDS011;9904;52.246;20.898;2023-04-01T16:56:11;5.27;;;2.80;;
19519;SDS011;9904;52.246;20.898;2023-04-01T16:58:41;4.53;;;2.80;;
19519;SDS011;9904;52.246;20.898;2023-04-01T17:01:24;4.87;;;2.80;;
19519;SDS011;9904;52.246;20.898;2023-04-01T17:04:00;5.77;;;2.73;;
19519;SDS011;9904;52.246;20.898;2023-04-01T17:09:16;7.57;;;3.50;;
19519;SDS011;9904;52.246;20.898;2023-04-01T17:14:46;10.43;;;4.93;;
19519;SDS011;9904;52.246;20.898;2023-04-01T17:17:37;8.03;;;4.40;;
19519;SDS011;9904;52.246;20.898;2023-04-01T17:28:39;11.07;;;4.53;;
19519;SDS011;9904;52.246;20.898;2023-04-01T17:39:19;7.50;;;4.30;;
19519;SDS011;9904;52.246;20.898;2023-04-01T17:47:36;7.97;;;4.83;;
19519;SDS011;9904;52.246;20.898;2023-04-01T17:56:43;7.50;;;5.07;;
19519;SDS011;9904;52.246;20.898;2023-04-01T17:59:16;7.80;;;4.90;;
19519;SDS011;9904;52.246;20.898;2023-04-01T18:12:31;7.10;;;4.83;;
19519;SDS011;9904;52.246;20.898;2023-04-01T18:15:31;9.70;;;5.60;;
19519;SDS011;9904;52.246;20.898;2023-04-01T18:24:13;10.10;;;6.00;;
19519;SDS011;9904;52.246;20.898;2023-04-01T18:29:35;11.67;;;6.87;;
19519;SDS011;9904;52.246;20.898;2023-04-01T18:37:37;12.17;;;7.27;;
19519;SDS011;9904;52.246;20.898;2023-04-01T18:43:16;9.83;;;6.33;;
19519;SDS011;9904;52.246;20.898;2023-04-01T18:46:00;11.63;;;6.57;;
19519;SDS011;9904;52.246;20.898;2023-04-01T18:49:33;10.37;;;6.40;;
19519;SDS011;9904;52.246;20.898;2023-04-01T18:51:49;11.57;;;6.83;;
19519;SDS011;9904;52.246;20.898;2023-04-01T18:54:32;10.10;;;6.30;;
19519;SDS011;9904;52.246;20.898;2023-04-01T18:57:04;12.57;;;7.07;;
19519;SDS011;9904;52.246;20.898;2023-04-01T18:59:50;13.20;;;7.77;;
19519;SDS011;9904;52.246;20.898;2023-04-01T19:10:16;10.37;;;6.30;;
19519;SDS011;9904;52.246;20.898;2023-04-01T19:15:39;14.83;;;7.47;;
19519;SDS011;9904;52.246;20.898;2023-04-01T19:18:33;11.53;;;6.60;;
19519;SDS011;9904;52.246;20.898;2023-04-01T19:21:14;11.23;;;6.73;;
19519;SDS011;9904;52.246;20.898;2023-04-01T19:26:40;10.47;;;6.93;;
19519;SDS011;9904;52.246;20.898;2023-04-01T19:40:41;12.70;;;6.70;;
19519;SDS011;9904;52.246;20.898;2023-04-01T19:45:59;10.17;;;6.13;;
19519;SDS011;9904;52.246;20.898;2023-04-01T19:51:20;12.97;;;6.70;;
19519;SDS011;9904;52.246;20.898;2023-04-01T19:54:01;11.60;;;5.97;;
19519;SDS011;9904;52.246;20.898;2023-04-01T19:56:45;12.77;;;6.60;;
19519;SDS011;9904;52.246;20.898;2023-04-01T20:04:48;12.47;;;6.70;;
19519;SDS011;9904;52.246;20.898;2023-04-01T20:07:27;10.13;;;6.17;;
19519;SDS011;9904;52.246;20.898;2023-04-01T20:10:06;13.87;;;6.97;;
19519;SDS011;9904;52.246;20.898;2023-04-01T20:15:27;10.27;;;6.33;;
19519;SDS011;9904;52.246;20.898;2023-04-01T20:18:00;12.30;;;7.10;;
19519;SDS011;9904;52.246;20.898;2023-04-01T20:20:31;10.77;;;6.50;;
19519;SDS011;9904;52.246;20.898;2023-04-01T20:25:41;13.30;;;7.70;;
19519;SDS011;9904;52.246;20.898;2023-04-01T20:36:39;12.27;;;6.63;;
19519;SDS011;9904;52.246;20.898;2023-04-01T20:45:42;9.47;;;6.07;;
19519;SDS011;9904;52.246;20.898;2023-04-01T20:51:18;11.50;;;6.40;;
19519;SDS011;9904;52.246;20.898;2023-04-01T20:56:42;11.50;;;6.07;;
19519;SDS011;9904;52.246;20.898;2023-04-01T21:02:03;8.83;;;5.37;;
19519;SDS011;9904;52.246;20.898;2023-04-01T21:09:53;8.10;;;4.80;;
19519;SDS011;9904;52.246;20.898;2023-04-01T21:20:36;8.83;;;4.20;;
19519;SDS011;9904;52.246;20.898;2023-04-01T21:34:40;7.70;;;4.30;;
19519;SDS011;9904;52.246;20.898;2023-04-01T21:37:14;11.53;;;5.00;;
19519;SDS011;9904;52.246;20.898;2023-04-01T21:45:14;7.00;;;4.40;;
19519;SDS011;9904;52.246;20.898;2023-04-01T21:48:03;8.80;;;5.20;;
19519;SDS011;9904;52.246;20.898;2023-04-01T22:05:56;9.47;;;4.73;;
19519;SDS011;9904;52.246;20.898;2023-04-01T22:11:20;9.67;;;5.50;;
19519;SDS011;9904;52.246;20.898;2023-04-01T22:14:09;9.03;;;5.60;;
19519;SDS011;9904;52.246;20.898;2023-04-01T22:19:23;10.40;;;5.60;;
19519;SDS011;9904;52.246;20.898;2023-04-01T22:25:00;8.57;;;5.33;;
19519;SDS011;9904;52.246;20.898;2023-04-01T22:30:28;10.70;;;5.57;;
19519;SDS011;9904;52.246;20.898;2023-04-01T22:33:05;12.17;;;5.93;;
19519;SDS011;9904;52.246;20.898;2023-04-01T22:38:10;8.97;;;5.00;;
19519;SDS011;9904;52.246;20.898;2023-04-01T22:46:15;9.13;;;5.67;;
19519;SDS011;9904;52.246;20.898;2023-04-01T22:51:39;10.03;;;5.20;;
19519;SDS011;9904;52.246;20.898;2023-04-01T22:54:22;7.80;;;4.70;;
19519;SDS011;9904;52.246;20.898;2023-04-01T22:57:05;9.40;;;4.97;;
19519;SDS011;9904;52.246;20.898;2023-04-01T23:02:22;8.57;;;4.57;;
19519;SDS011;9904;52.246;20.898;2023-04-01T23:04:53;10.97;;;4.97;;
19519;SDS011;9904;52.246;20.898;2023-04-01T23:10:15;9.27;;;5.27;;
19519;SDS011;9904;52.246;20.898;2023-04-01T23:12:44;7.57;;;4.53;;
19519;SDS011;9904;52.246;20.898;2023-04-01T23:15:12;8.27;;;4.73;;
19519;SDS011;9904;52.246;20.898;2023-04-01T23:20:56;9.93;;;5.40;;
19519;SDS011;9904;52.246;20.898;2023-04-01T23:26:42;8.37;;;4.80;;
19519;SDS011;9904;52.246;20.898;2023-04-01T23:29:15;11.17;;;5.67;;
19519;SDS011;9904;52.246;20.898;2023-04-01T23:31:47;9.47;;;5.03;;
19519;SDS011;9904;52.246;20.898;2023-04-01T23:34:21;9.43;;;5.20;;
19519;SDS011;9904;52.246;20.898;2023-04-01T23:36:51;8.63;;;4.80;;
19519;SDS011;9904;52.246;20.898;2023-04-01T23:41:55;9.97;;;4.97;;
19519;SDS011;9904;52.246;20.898;2023-04-01T23:44:25;8.80;;;4.90;;
19519;SDS011;9904;52.246;20.898;2023-04-01T23:46:52;6.90;;;3.93;;
19519;SDS011;9904;52.246;20.898;2023-04-01T23:49:24;7.87;;;4.30;;
19519;SDS011;9904;52.246;20.898;2023-04-01T23:51:58;7.50;;;4.37;;
19519;SDS011;9904;52.246;20.898;2023-04-01T23:54:30;8.37;;;4.73;;
19519;SDS011;9904;52.246;20.898;2023-04-01T23:56:59;7.47;;;4.07;;
19519;SDS011;9904;52.246;20.898;2023-04-01T23:59:30;9.20;;;4.77;;
